createdAt,value
2018-09-14T00:01:22.374Z,97.90
2018-09-14T00:03:50.622Z,97.70
2018-09-14T00:06:18.914Z,97.70
2018-09-14T00:08:47.116Z,97.70
2018-09-14T00:11:15.350Z,97.70
2018-09-14T00:13:43.617Z,97.70
2018-09-14T00:16:11.922Z,97.70
2018-09-14T00:18:40.170Z,97.60
2018-09-14T00:21:08.402Z,97.60
2018-09-14T00:23:36.597Z,97.70
2018-09-14T00:26:04.831Z,97.70
2018-09-14T00:28:33.920Z,97.60
2018-09-14T00:31:02.398Z,97.70
2018-09-14T00:33:30.603Z,97.70
2018-09-14T00:35:58.849Z,97.70
2018-09-14T00:38:27.429Z,97.70
2018-09-14T00:40:55.672Z,97.90
2018-09-14T00:43:23.881Z,98.40
2018-09-14T00:45:52.110Z,98.00
2018-09-14T00:48:20.361Z,98.30
2018-09-14T00:50:48.597Z,98.40
2018-09-14T00:53:16.906Z,98.50
2018-09-14T00:55:45.153Z,98.30
2018-09-14T00:58:13.417Z,98.20
2018-09-14T01:00:41.738Z,98.20
2018-09-14T01:03:10.315Z,98.10
2018-09-14T01:05:38.542Z,98.20
2018-09-14T01:08:06.766Z,98.20
2018-09-14T01:10:35.030Z,98.20
2018-09-14T01:13:03.462Z,98.10
2018-09-14T01:15:31.715Z,98.10
2018-09-14T01:17:59.947Z,98.10
2018-09-14T01:20:28.227Z,98.20
2018-09-14T01:22:56.484Z,98.20
2018-09-14T01:25:25.413Z,98.20
2018-09-14T01:27:53.738Z,98.10
2018-09-14T01:30:22.007Z,98.10
2018-09-14T01:32:50.214Z,98.20
2018-09-14T01:35:23.911Z,98.20
2018-09-14T01:37:52.119Z,98.20
2018-09-14T01:40:20.363Z,98.00
2018-09-14T01:42:48.566Z,98.10
2018-09-14T01:45:16.804Z,98.00
2018-09-14T01:47:45.003Z,98.10
2018-09-14T01:50:13.215Z,98.10
2018-09-14T01:52:41.478Z,98.10
2018-09-14T01:55:09.713Z,98.00
2018-09-14T01:57:37.918Z,97.90
2018-09-14T02:00:06.919Z,98.00
2018-09-14T02:02:35.288Z,98.00
2018-09-14T02:05:03.552Z,98.10
2018-09-14T02:07:31.799Z,98.00
2018-09-14T02:10:00.011Z,98.10
2018-09-14T02:12:28.256Z,98.20
2018-09-14T02:14:56.454Z,98.60
2018-09-14T02:17:24.658Z,98.30
2018-09-14T02:19:53.110Z,98.10
2018-09-14T02:22:21.339Z,98.20
2018-09-14T02:24:49.574Z,98.40
2018-09-14T02:27:24.442Z,98.30
2018-09-14T02:29:52.654Z,98.50
2018-09-14T02:32:20.886Z,98.40
2018-09-14T02:34:49.106Z,98.40
2018-09-14T02:37:17.353Z,98.30
2018-09-14T02:39:45.599Z,98.40
2018-09-14T02:42:13.849Z,98.40
2018-09-14T02:44:42.078Z,98.30
2018-09-14T02:47:10.301Z,98.20
2018-09-14T02:49:38.562Z,98.30
2018-09-14T02:52:06.816Z,98.30
2018-09-14T02:54:35.054Z,98.20
2018-09-14T02:57:03.300Z,98.10
2018-09-14T02:59:31.549Z,98.00
2018-09-14T03:01:59.817Z,98.00
2018-09-14T03:04:28.122Z,97.90
2018-09-14T03:06:56.387Z,97.90
2018-09-14T03:09:24.702Z,98.00
2018-09-14T03:11:54.034Z,98.00
2018-09-14T03:14:22.234Z,97.90
2018-09-14T03:16:50.444Z,97.90
2018-09-14T03:19:18.714Z,98.00
2018-09-14T03:21:46.945Z,98.20
2018-09-14T03:24:15.233Z,98.10
2018-09-14T03:26:43.514Z,98.10
2018-09-14T03:29:11.758Z,98.00
2018-09-14T03:31:39.990Z,98.00
2018-09-14T03:34:08.190Z,98.10
2018-09-14T03:36:36.438Z,98.00
2018-09-14T03:39:06.808Z,97.90
2018-09-14T03:41:35.007Z,97.90
2018-09-14T03:44:03.235Z,98.00
2018-09-14T03:46:31.461Z,98.00
2018-09-14T03:48:59.686Z,98.10
2018-09-14T03:51:27.939Z,98.10
2018-09-14T03:53:56.183Z,98.10
2018-09-14T03:56:24.452Z,98.20
2018-09-14T03:58:52.697Z,98.30
2018-09-14T04:01:20.904Z,98.40
2018-09-14T04:03:49.121Z,98.50
2018-09-14T04:06:17.334Z,98.60
2018-09-14T04:08:45.611Z,98.70
2018-09-14T04:11:13.867Z,98.70
2018-09-14T04:13:42.114Z,98.70
2018-09-14T04:16:10.365Z,98.80
2018-09-14T04:18:38.599Z,98.90
2018-09-14T04:21:06.871Z,98.90
2018-09-14T04:23:36.069Z,99.00
2018-09-14T04:26:04.208Z,99.00
2018-09-14T04:28:32.434Z,99.10
2018-09-14T04:31:00.641Z,99.10
2018-09-14T04:33:28.865Z,99.10
2018-09-14T04:35:57.091Z,99.10
2018-09-14T04:38:25.303Z,98.90
2018-09-14T04:40:53.554Z,99.00
2018-09-14T04:43:21.923Z,99.00
2018-09-14T04:45:50.198Z,99.00
2018-09-14T04:48:18.478Z,99.20
2018-09-14T04:50:46.652Z,98.90
2018-09-14T04:53:14.912Z,98.90
2018-09-14T04:55:43.145Z,98.80
2018-09-14T04:58:11.471Z,98.80
2018-09-14T05:00:39.779Z,98.70
2018-09-14T05:03:07.979Z,98.80
2018-09-14T05:05:36.224Z,98.80
2018-09-14T05:08:04.449Z,98.90
2018-09-14T05:10:32.765Z,98.90
2018-09-14T05:13:01.004Z,98.90
2018-09-14T05:15:29.213Z,99.00
2018-09-14T05:17:57.539Z,99.00
2018-09-14T05:20:25.807Z,99.10
2018-09-14T05:22:54.056Z,99.20
2018-09-14T05:25:22.317Z,99.20
2018-09-14T05:27:50.567Z,99.30
2018-09-14T05:30:19.703Z,99.40
2018-09-14T05:32:47.964Z,99.40
2018-09-14T05:35:16.220Z,99.50
2018-09-14T05:37:44.467Z,99.40
2018-09-14T05:40:12.734Z,99.50
2018-09-14T05:42:40.982Z,99.50
2018-09-14T05:45:09.195Z,99.40
2018-09-14T05:47:37.465Z,99.30
2018-09-14T05:50:05.745Z,99.20
2018-09-14T05:52:34.061Z,99.20
2018-09-14T05:55:02.286Z,98.90
2018-09-14T05:57:30.577Z,98.70
2018-09-14T05:59:58.831Z,98.40
2018-09-14T06:02:27.111Z,98.20
2018-09-14T06:04:55.422Z,98.10
2018-09-14T06:07:23.710Z,97.80
2018-09-14T06:09:51.943Z,97.50
2018-09-14T06:12:20.274Z,97.40
2018-09-14T06:14:48.606Z,97.30
2018-09-14T06:17:16.806Z,97.70
2018-09-14T06:19:45.051Z,97.50
2018-09-14T06:22:13.238Z,97.30
2018-09-14T06:24:41.435Z,97.00
2018-09-14T06:27:09.710Z,96.70
2018-09-14T06:29:37.965Z,96.60
2018-09-14T06:32:06.258Z,96.60
2018-09-14T06:34:34.511Z,96.50
2018-09-14T06:37:02.834Z,96.10
2018-09-14T06:39:33.957Z,96.00
2018-09-14T06:42:02.176Z,95.80
2018-09-14T06:44:30.492Z,95.60
2018-09-14T06:46:58.718Z,95.30
2018-09-14T06:49:26.930Z,95.10
2018-09-14T06:51:55.360Z,95.10
2018-09-14T06:54:23.588Z,94.90
2018-09-14T06:56:51.842Z,95.00
2018-09-14T06:59:20.046Z,94.70
2018-09-14T07:01:48.564Z,94.70
2018-09-14T07:04:16.842Z,94.50
2018-09-14T07:06:45.134Z,94.30
2018-09-14T07:09:13.435Z,94.30
2018-09-14T07:11:41.660Z,94.30
2018-09-14T07:14:09.946Z,94.20
2018-09-14T07:16:38.154Z,94.00
2018-09-14T07:19:06.353Z,94.00
2018-09-14T07:21:34.582Z,93.90
2018-09-14T07:24:02.898Z,93.90
2018-09-14T07:26:31.106Z,93.70
2018-09-14T07:28:59.321Z,93.60
2018-09-14T07:31:27.583Z,93.60
2018-09-14T07:33:55.806Z,93.50
2018-09-14T07:36:24.129Z,93.40
2018-09-14T07:38:52.270Z,93.30
2018-09-14T07:41:20.476Z,93.30
2018-09-14T07:43:48.712Z,93.30
2018-09-14T07:46:16.923Z,93.20
2018-09-14T07:48:45.149Z,93.20
2018-09-14T07:51:13.348Z,93.20
2018-09-14T07:53:41.631Z,93.20
2018-09-14T07:56:09.837Z,93.10
2018-09-14T07:58:38.066Z,92.90
2018-09-14T08:01:06.322Z,92.90
2018-09-14T08:03:34.527Z,92.80
2018-09-14T08:06:02.817Z,92.60
2018-09-14T08:08:31.075Z,92.60
2018-09-14T08:10:59.321Z,92.20
2018-09-14T08:13:27.571Z,92.10
2018-09-14T08:15:55.775Z,92.10
2018-09-14T08:18:23.990Z,91.70
2018-09-14T08:20:52.234Z,91.60
2018-09-14T08:23:20.465Z,91.00
2018-09-14T08:25:48.714Z,90.80
2018-09-14T08:28:16.953Z,90.70
2018-09-14T08:30:45.184Z,90.50
2018-09-14T08:33:13.413Z,90.50
2018-09-14T08:35:41.660Z,90.50
2018-09-14T08:38:10.041Z,90.40
2018-09-14T08:40:38.331Z,90.40
2018-09-14T08:43:06.567Z,90.30
2018-09-14T08:45:34.810Z,90.30
2018-09-14T08:48:03.112Z,90.30
2018-09-14T08:50:31.296Z,90.10
2018-09-14T08:52:59.535Z,90.10
2018-09-14T08:55:28.467Z,90.00
2018-09-14T08:57:56.721Z,90.00
2018-09-14T09:00:25.350Z,90.00
2018-09-14T09:02:54.533Z,90.10
2018-09-14T09:05:23.426Z,90.00
2018-09-14T09:07:51.752Z,90.10
2018-09-14T09:10:19.982Z,90.00
2018-09-14T09:12:48.907Z,89.90
2018-09-14T09:15:17.141Z,89.70
2018-09-14T09:17:46.158Z,89.20
2018-09-14T09:20:14.326Z,89.40
2018-09-14T09:22:42.675Z,89.10
2018-09-14T09:25:10.954Z,88.90
2018-09-14T09:27:39.188Z,88.90
2018-09-14T09:30:08.116Z,88.90
2018-09-14T09:32:36.358Z,89.00
2018-09-14T09:35:04.579Z,88.90
2018-09-14T09:37:34.832Z,87.60
2018-09-14T09:40:03.143Z,87.80
2018-09-14T09:42:31.753Z,88.00
2018-09-14T09:45:00.306Z,87.90
2018-09-14T09:47:28.533Z,87.30
2018-09-14T09:49:56.744Z,87.40
2018-09-14T09:52:25.100Z,87.10
2018-09-14T09:54:53.342Z,86.70
2018-09-14T09:57:21.583Z,86.20
2018-09-14T09:59:49.811Z,85.70
2018-09-14T10:02:23.531Z,85.30
2018-09-14T10:04:57.269Z,84.60
2018-09-14T10:07:26.478Z,83.80
2018-09-14T10:09:55.222Z,82.90
2018-09-14T10:12:23.464Z,82.50
2018-09-14T10:14:51.768Z,81.80
2018-09-14T10:17:19.978Z,80.90
2018-09-14T10:19:48.186Z,80.90
2018-09-14T10:22:16.420Z,80.20
2018-09-14T10:24:44.668Z,78.80
2018-09-14T10:27:13.137Z,78.00
2018-09-14T10:29:41.349Z,77.40
2018-09-14T10:32:09.589Z,77.30
2018-09-14T10:34:37.855Z,75.50
2018-09-14T10:37:06.153Z,74.50
2018-09-14T10:39:34.367Z,72.90
2018-09-14T10:42:02.606Z,70.00
2018-09-14T10:44:31.087Z,68.90
2018-09-14T10:46:59.306Z,66.10
2018-09-14T10:49:27.954Z,63.20
2018-09-14T10:51:56.171Z,62.40
2018-09-14T10:54:24.380Z,62.40
2018-09-14T10:56:52.790Z,64.40
2018-09-14T10:59:21.084Z,63.00
2018-09-14T11:01:49.338Z,63.10
2018-09-14T11:04:17.754Z,62.10
2018-09-14T11:06:46.077Z,60.70
2018-09-14T11:09:14.439Z,61.70
2018-09-14T11:11:42.903Z,63.20
2018-09-14T11:14:11.749Z,63.60
2018-09-14T11:16:40.070Z,62.70
2018-09-14T11:19:08.479Z,62.10
2018-09-14T11:21:36.685Z,62.50
2018-09-14T11:24:05.022Z,62.60
2018-09-14T11:26:38.787Z,59.90
2018-09-14T11:29:08.063Z,60.50
2018-09-14T11:31:36.329Z,60.80
2018-09-14T11:34:05.393Z,60.30
2018-09-14T11:36:33.695Z,61.20
2018-09-14T11:39:02.264Z,61.40
2018-09-14T11:41:30.478Z,61.10
2018-09-14T11:43:59.140Z,60.80
2018-09-14T11:46:27.458Z,60.80
2018-09-14T11:48:55.955Z,60.00
2018-09-14T11:51:24.409Z,58.00
2018-09-14T11:53:52.678Z,57.70
2018-09-14T11:56:20.997Z,55.90
2018-09-14T11:58:49.222Z,55.70
2018-09-14T12:01:17.574Z,54.00
2018-09-14T12:03:46.366Z,54.10
2018-09-14T12:06:15.298Z,53.80
2018-09-14T12:08:43.571Z,53.60
2018-09-14T12:11:12.700Z,54.20
2018-09-14T12:13:40.996Z,55.40
2018-09-14T12:16:09.197Z,56.60
2018-09-14T12:18:37.467Z,56.80
2018-09-14T12:21:05.730Z,57.30
2018-09-14T12:23:34.033Z,57.50
2018-09-14T12:26:02.433Z,56.30
2018-09-14T12:28:30.729Z,56.00
2018-09-14T12:30:59.014Z,55.20
2018-09-14T12:33:27.413Z,54.60
2018-09-14T12:35:55.697Z,54.90
2018-09-14T12:38:23.921Z,54.20
2018-09-14T12:40:52.491Z,54.30
2018-09-14T12:43:21.504Z,54.70
2018-09-14T12:45:49.886Z,53.00
2018-09-14T12:48:18.341Z,53.00
2018-09-14T12:50:46.633Z,52.20
2018-09-14T12:55:52.167Z,51.50
2018-09-14T12:58:20.411Z,51.60
2018-09-14T13:00:48.855Z,51.80
2018-09-14T13:03:17.379Z,52.10
2018-09-14T13:05:45.739Z,52.60
2018-09-14T13:08:15.069Z,53.00
2018-09-14T13:10:43.337Z,53.00
2018-09-14T13:13:11.583Z,52.40
2018-09-14T13:15:39.928Z,50.80
2018-09-14T13:18:08.252Z,51.20
2018-09-14T13:20:36.496Z,51.30
2018-09-14T13:23:05.112Z,52.20
2018-09-14T13:25:33.808Z,52.30
2018-09-14T13:28:02.352Z,52.80
2018-09-14T13:30:30.887Z,52.70
2018-09-14T13:32:59.439Z,51.60
2018-09-14T13:35:28.022Z,52.00
2018-09-14T13:37:56.393Z,52.00
2018-09-14T13:40:24.742Z,51.80
2018-09-14T13:42:53.336Z,51.20
2018-09-14T13:45:21.614Z,51.20
2018-09-14T13:47:49.942Z,51.50
2018-09-14T13:50:18.266Z,52.20
2018-09-14T13:52:46.511Z,52.70
2018-09-14T13:55:14.862Z,53.10
2018-09-14T13:57:43.179Z,53.50
2018-09-14T14:00:11.513Z,53.50
2018-09-14T14:02:39.982Z,53.30
2018-09-14T14:05:08.217Z,53.10
2018-09-14T14:07:36.583Z,52.50
2018-09-14T14:10:05.151Z,52.30
2018-09-14T14:12:33.421Z,52.30
2018-09-14T14:15:01.642Z,52.30
2018-09-14T14:17:30.116Z,51.90
2018-09-14T14:19:58.258Z,51.60
2018-09-14T14:22:26.904Z,51.30
2018-09-14T14:24:55.210Z,50.70
2018-09-14T14:27:23.592Z,51.10
2018-09-14T14:29:52.462Z,50.80
2018-09-14T14:32:20.819Z,50.60
2018-09-14T14:34:49.146Z,51.10
2018-09-14T14:37:17.614Z,51.10
2018-09-14T14:39:46.006Z,51.60
2018-09-14T14:42:14.420Z,50.60
2018-09-14T14:44:43.107Z,49.60
2018-09-14T14:47:11.505Z,49.80
2018-09-14T14:49:39.990Z,50.30
2018-09-14T14:52:08.687Z,50.90
2018-09-14T14:54:37.114Z,51.00
2018-09-14T14:57:05.632Z,51.00
2018-09-14T14:59:34.192Z,51.00
2018-09-14T15:02:02.552Z,50.90
2018-09-14T15:04:30.846Z,50.00
2018-09-14T15:06:59.147Z,49.80
2018-09-14T15:09:27.610Z,49.90
2018-09-14T15:11:56.110Z,49.40
2018-09-14T15:14:25.848Z,49.50
2018-09-14T15:16:54.374Z,49.70
2018-09-14T15:19:23.139Z,49.60
2018-09-14T15:21:51.509Z,48.90
2018-09-14T15:24:20.041Z,49.70
2018-09-14T15:26:49.899Z,48.80
2018-09-14T15:29:18.249Z,48.70
2018-09-14T15:31:46.967Z,49.00
2018-09-14T15:34:15.704Z,48.90
2018-09-14T15:36:43.976Z,48.80
2018-09-14T15:39:13.321Z,48.60
2018-09-14T15:41:48.202Z,48.90
2018-09-14T15:44:16.608Z,48.00
2018-09-14T15:46:45.230Z,48.40
2018-09-14T15:49:14.718Z,48.00
2018-09-14T15:51:43.064Z,48.20
2018-09-14T15:54:11.499Z,48.60
2018-09-14T15:56:41.882Z,48.40
2018-09-14T15:59:10.138Z,48.70
2018-09-14T16:01:38.651Z,48.50
2018-09-14T16:04:06.962Z,48.40
2018-09-14T16:06:35.438Z,48.40
2018-09-14T16:09:05.856Z,48.60
2018-09-14T16:11:34.387Z,48.20
2018-09-14T16:14:02.682Z,48.40
2018-09-14T16:16:31.398Z,48.60
2018-09-14T16:19:05.534Z,49.30
2018-09-14T16:21:37.306Z,48.80
2018-09-14T16:24:06.134Z,48.90
2018-09-14T16:26:37.502Z,49.10
2018-09-14T16:29:05.781Z,49.20
2018-09-14T16:31:34.469Z,49.30
2018-09-14T16:34:04.160Z,49.60
2018-09-14T16:36:32.436Z,49.40
2018-09-14T16:39:00.705Z,49.50
2018-09-14T16:41:29.046Z,49.70
2018-09-14T16:43:57.294Z,49.80
2018-09-14T16:46:26.201Z,49.90
2018-09-14T16:48:54.592Z,50.00
2018-09-14T16:51:22.896Z,50.40
2018-09-14T16:53:51.124Z,50.50
2018-09-14T16:56:19.470Z,50.70
2018-09-14T16:58:47.945Z,50.80
2018-09-14T17:01:16.260Z,51.20
2018-09-14T17:03:44.475Z,51.30
2018-09-14T17:06:12.810Z,51.60
2018-09-14T17:08:47.896Z,51.30
2018-09-14T17:11:16.203Z,51.30
2018-09-14T17:13:44.668Z,51.50
2018-09-14T17:16:13.223Z,51.50
2018-09-14T17:18:42.349Z,51.50
2018-09-14T17:21:10.752Z,51.50
2018-09-14T17:23:40.196Z,51.70
2018-09-14T17:26:08.597Z,51.90
2018-09-14T17:28:37.443Z,52.20
2018-09-14T17:31:05.841Z,52.10
2018-09-14T17:33:35.967Z,52.40
2018-09-14T17:36:05.671Z,52.50
2018-09-14T17:38:34.088Z,52.70
2018-09-14T17:41:03.004Z,52.80
2018-09-14T17:43:39.097Z,52.90
2018-09-14T17:46:07.857Z,53.20
2018-09-14T17:48:36.859Z,53.30
2018-09-14T17:51:05.639Z,53.50
2018-09-14T17:53:34.134Z,53.80
2018-09-14T17:56:02.576Z,53.90
2018-09-14T17:58:31.132Z,54.10
2018-09-14T18:00:59.399Z,54.30
2018-09-14T18:03:28.156Z,54.50
2018-09-14T18:05:56.404Z,54.60
2018-09-14T18:08:24.644Z,54.70
2018-09-14T18:10:53.013Z,54.80
2018-09-14T18:13:21.567Z,55.00
2018-09-14T18:15:49.943Z,55.10
2018-09-14T18:18:18.488Z,55.20
2018-09-14T18:20:46.844Z,55.30
2018-09-14T18:23:15.206Z,55.50
2018-09-14T18:25:43.460Z,55.60
2018-09-14T18:28:11.836Z,55.80
2018-09-14T18:30:40.095Z,55.70
2018-09-14T18:33:08.437Z,56.00
2018-09-14T18:35:36.723Z,56.10
2018-09-14T18:38:05.098Z,56.20
2018-09-14T18:40:33.436Z,56.30
2018-09-14T18:43:01.792Z,56.90
2018-09-14T18:45:30.138Z,56.40
2018-09-14T18:47:58.514Z,56.20
2018-09-14T18:50:26.790Z,56.60
2018-09-14T18:52:55.042Z,56.50
2018-09-14T18:55:23.430Z,56.70
2018-09-14T18:57:51.695Z,56.80
2018-09-14T19:00:20.003Z,56.90
2018-09-14T19:02:48.246Z,57.00
2018-09-14T19:05:16.570Z,57.80
2018-09-14T19:07:44.780Z,57.40
2018-09-14T19:10:13.077Z,57.50
2018-09-14T19:12:41.482Z,57.70
2018-09-14T19:15:09.920Z,57.90
2018-09-14T19:17:38.175Z,57.90
2018-09-14T19:20:06.535Z,58.00
2018-09-14T19:22:34.791Z,58.60
2018-09-14T19:25:03.204Z,58.40
2018-09-14T19:27:31.798Z,58.50
2018-09-14T19:30:00.335Z,58.50
2018-09-14T19:32:28.701Z,58.40
2018-09-14T19:34:57.111Z,58.80
2018-09-14T19:37:25.558Z,58.90
2018-09-14T19:39:53.863Z,58.90
2018-09-14T19:42:22.454Z,59.10
2018-09-14T19:44:50.853Z,59.20
2018-09-14T19:47:19.165Z,59.30
2018-09-14T19:49:47.507Z,59.50
2018-09-14T19:52:15.877Z,60.30
2018-09-14T19:54:44.256Z,59.70
2018-09-14T19:57:12.558Z,60.00
2018-09-14T19:59:40.931Z,60.30
2018-09-14T20:02:09.953Z,60.40
2018-09-14T20:04:38.348Z,60.50
2018-09-14T20:07:06.998Z,60.70
2018-09-14T20:09:35.217Z,60.90
2018-09-14T20:12:03.439Z,61.10
2018-09-14T20:14:31.701Z,61.40
2018-09-14T20:17:00.014Z,61.50
2018-09-14T20:19:28.370Z,61.70
2018-09-14T20:21:56.649Z,61.90
2018-09-14T20:24:25.535Z,62.10
2018-09-14T20:26:53.994Z,62.40
2018-09-14T20:29:22.352Z,62.70
2018-09-14T20:31:50.595Z,63.10
2018-09-14T20:34:18.912Z,63.50
2018-09-14T20:36:47.260Z,63.80
2018-09-14T20:39:15.540Z,64.00
2018-09-14T20:41:43.972Z,64.10
2018-09-14T20:44:12.222Z,64.10
2018-09-14T20:46:40.589Z,64.30
2018-09-14T20:49:08.910Z,64.40
2018-09-14T20:51:37.195Z,64.50
2018-09-14T20:54:05.518Z,64.70
2018-09-14T20:56:33.758Z,64.80
2018-09-14T20:59:02.247Z,65.50
2018-09-14T21:01:30.522Z,65.30
2018-09-14T21:03:59.115Z,65.80
2018-09-14T21:06:27.422Z,66.30
2018-09-14T21:08:55.682Z,66.90
2018-09-14T21:11:23.929Z,67.10
2018-09-14T21:13:52.144Z,67.30
2018-09-14T21:16:20.446Z,67.60
2018-09-14T21:18:48.685Z,67.60
2018-09-14T21:21:18.475Z,67.70
2018-09-14T21:23:46.806Z,67.70
2018-09-14T21:26:15.079Z,68.00
2018-09-14T21:28:43.577Z,68.30
2018-09-14T21:31:11.824Z,68.60
2018-09-14T21:33:40.668Z,68.90
2018-09-14T21:36:08.985Z,69.10
2018-09-14T21:38:37.301Z,69.40
2018-09-14T21:41:05.564Z,69.60
2018-09-14T21:43:33.874Z,69.60
2018-09-14T21:46:02.086Z,69.60
2018-09-14T21:48:30.366Z,69.70
2018-09-14T21:50:58.597Z,69.80
2018-09-14T21:53:27.012Z,70.00
2018-09-14T21:55:55.244Z,70.00
2018-09-14T21:58:23.541Z,70.70
2018-09-14T22:00:57.383Z,70.20
2018-09-14T22:03:25.690Z,70.20
2018-09-14T22:05:53.905Z,70.50
2018-09-14T22:08:22.214Z,70.50
2018-09-14T22:10:50.473Z,70.70
2018-09-14T22:13:18.847Z,70.90
2018-09-14T22:15:47.058Z,71.00
2018-09-14T22:18:15.302Z,71.10
2018-09-14T22:20:49.958Z,71.20
2018-09-14T22:23:18.201Z,71.40
2018-09-14T22:25:46.540Z,71.60
2018-09-14T22:28:14.800Z,71.80
2018-09-14T22:30:43.120Z,72.00
2018-09-14T22:33:11.377Z,71.90
2018-09-14T22:35:39.598Z,71.90
2018-09-14T22:38:07.996Z,71.70
2018-09-14T22:40:36.338Z,72.00
2018-09-14T22:43:05.344Z,71.70
2018-09-14T22:45:33.646Z,72.40
2018-09-14T22:48:01.875Z,71.60
2018-09-14T22:50:30.118Z,71.30
2018-09-14T22:52:58.357Z,71.40
2018-09-14T22:55:26.683Z,71.30
2018-09-14T22:57:54.912Z,71.20
2018-09-14T23:00:28.676Z,71.10
2018-09-14T23:02:56.944Z,70.90
2018-09-14T23:05:25.238Z,70.90
2018-09-14T23:07:53.692Z,70.70
2018-09-14T23:10:21.919Z,70.60
2018-09-14T23:12:50.140Z,70.50
2018-09-14T23:15:18.508Z,70.40
2018-09-14T23:17:46.730Z,70.50
2018-09-14T23:20:14.972Z,70.40
2018-09-14T23:22:43.190Z,70.50
2018-09-14T23:25:11.676Z,70.70
2018-09-14T23:27:39.952Z,70.70
2018-09-14T23:30:08.215Z,70.80
2018-09-14T23:35:16.170Z,70.70
2018-09-14T23:37:44.661Z,70.80
2018-09-14T23:40:13.085Z,70.80
2018-09-14T23:42:41.302Z,70.90
2018-09-14T23:45:09.545Z,71.00
2018-09-14T23:47:37.886Z,71.10
2018-09-14T23:50:06.099Z,71.10
2018-09-14T23:52:34.372Z,71.20
2018-09-14T23:55:02.633Z,71.30
2018-09-14T23:57:30.889Z,71.30
2018-09-14T23:59:59.078Z,71.30
